sensor_id;sensor_type;location;lat;lon;timestamp;pressure;altitude;pressure_sealevel;temperature;humidity
16194;BME280;8204;53.582;10.080;2023-04-19T00:01:04;102920.97;;;9.38;100.00
16194;BME280;8204;53.582;10.080;2023-04-19T00:03:36;102914.22;;;9.34;100.00
16194;BME280;8204;53.582;10.080;2023-04-19T00:06:06;102916.75;;;9.35;100.00
16194;BME280;8204;53.582;10.080;2023-04-19T00:08:35;102908.16;;;9.33;100.00
16194;BME280;8204;53.582;10.080;2023-04-19T00:11:06;102902.81;;;9.35;100.00
16194;BME280;8204;53.582;10.080;2023-04-19T00:13:35;102898.00;;;9.29;100.00
16194;BME280;8204;53.582;10.080;2023-04-19T00:16:06;102905.41;;;9.22;100.00
16194;BME280;8204;53.582;10.080;2023-04-19T00:18:39;102892.63;;;9.18;100.00
16194;BME280;8204;53.582;10.080;2023-04-19T00:21:08;102900.63;;;9.15;100.00
16194;BME280;8204;53.582;10.080;2023-04-19T00:23:37;102888.72;;;9.11;100.00
16194;BME280;8204;53.582;10.080;2023-04-19T00:26:05;102895.81;;;9.09;100.00
16194;BME280;8204;53.582;10.080;2023-04-19T00:28:36;102893.19;;;9.09;100.00
16194;BME280;8204;53.582;10.080;2023-04-19T00:31:04;102882.06;;;9.05;100.00
16194;BME280;8204;53.582;10.080;2023-04-19T00:33:33;102886.47;;;9.05;100.00
16194;BME280;8204;53.582;10.080;2023-04-19T00:36:06;102882.28;;;9.02;100.00
16194;BME280;8204;53.582;10.080;2023-04-19T00:38:45;102884.25;;;8.99;100.00
16194;BME280;8204;53.582;10.080;2023-04-19T00:41:20;102886.28;;;8.94;100.00
16194;BME280;8204;53.582;10.080;2023-04-19T00:43:48;102882.75;;;8.95;100.00
16194;BME280;8204;53.582;10.080;2023-04-19T00:46:18;102882.97;;;8.92;100.00
16194;BME280;8204;53.582;10.080;2023-04-19T00:48:48;102881.38;;;8.89;100.00
16194;BME280;8204;53.582;10.080;2023-04-19T00:51:20;102882.38;;;8.87;100.00
16194;BME280;8204;53.582;10.080;2023-04-19T00:53:49;102887.81;;;8.84;100.00
16194;BME280;8204;53.582;10.080;2023-04-19T00:56:18;102884.66;;;8.79;100.00
16194;BME280;8204;53.582;10.080;2023-04-19T00:58:49;102886.63;;;8.75;100.00
16194;BME280;8204;53.582;10.080;2023-04-19T01:01:18;102887.66;;;8.73;100.00
16194;BME280;8204;53.582;10.080;2023-04-19T01:03:47;102888.59;;;8.72;100.00
16194;BME280;8204;53.582;10.080;2023-04-19T01:06:16;102887.84;;;8.70;100.00
16194;BME280;8204;53.582;10.080;2023-04-19T01:08:48;102887.06;;;8.68;100.00
16194;BME280;8204;53.582;10.080;2023-04-19T01:11:17;102892.50;;;8.65;100.00
16194;BME280;8204;53.582;10.080;2023-04-19T01:13:46;102885.59;;;8.64;100.00
16194;BME280;8204;53.582;10.080;2023-04-19T01:16:14;102883.16;;;8.61;100.00
16194;BME280;8204;53.582;10.080;2023-04-19T01:18:43;102890.34;;;8.58;100.00
16194;BME280;8204;53.582;10.080;2023-04-19T01:21:12;102893.25;;;8.53;100.00
16194;BME280;8204;53.582;10.080;2023-04-19T01:23:44;102891.38;;;8.55;100.00
16194;BME280;8204;53.582;10.080;2023-04-19T01:26:13;102893.16;;;8.55;100.00
16194;BME280;8204;53.582;10.080;2023-04-19T01:28:42;102890.44;;;8.56;100.00
16194;BME280;8204;53.582;10.080;2023-04-19T01:31:11;102892.31;;;8.54;100.00
16194;BME280;8204;53.582;10.080;2023-04-19T01:33:40;102881.84;;;8.54;100.00
16194;BME280;8204;53.582;10.080;2023-04-19T01:36:08;102898.66;;;8.50;100.00
16194;BME280;8204;53.582;10.080;2023-04-19T01:38:37;102898.66;;;8.50;100.00
16194;BME280;8204;53.582;10.080;2023-04-19T01:41:09;102894.47;;;8.48;100.00
16194;BME280;8204;53.582;10.080;2023-04-19T01:43:37;102895.50;;;8.45;100.00
16194;BME280;8204;53.582;10.080;2023-04-19T01:46:07;102882.34;;;8.47;100.00
16194;BME280;8204;53.582;10.080;2023-04-19T01:48:36;102892.13;;;8.43;100.00
16194;BME280;8204;53.582;10.080;2023-04-19T01:51:05;102885.22;;;8.42;100.00
16194;BME280;8204;53.582;10.080;2023-04-19T01:53:34;102885.41;;;8.39;100.00
16194;BME280;8204;53.582;10.080;2023-04-19T01:56:04;102877.59;;;8.39;100.00
16194;BME280;8204;53.582;10.080;2023-04-19T01:58:35;102875.25;;;8.35;100.00
16194;BME280;8204;53.582;10.080;2023-04-19T02:01:04;102873.84;;;8.29;100.00
16194;BME280;8204;53.582;10.080;2023-04-19T02:03:37;102866.94;;;8.28;100.00
16194;BME280;8204;53.582;10.080;2023-04-19T02:06:09;102866.94;;;8.28;100.00
16194;BME280;8204;53.582;10.080;2023-04-19T02:08:39;102874.19;;;8.23;100.00
16194;BME280;8204;53.582;10.080;2023-04-19T02:11:08;102864.78;;;8.21;100.00
16194;BME280;8204;53.582;10.080;2023-04-19T02:13:41;102864.88;;;8.19;100.00
16194;BME280;8204;53.582;10.080;2023-04-19T02:16:10;102869.34;;;8.17;100.00
16194;BME280;8204;53.582;10.080;2023-04-19T02:18:39;102878.28;;;8.13;100.00
16194;BME280;8204;53.582;10.080;2023-04-19T02:21:09;102871.53;;;8.09;100.00
16194;BME280;8204;53.582;10.080;2023-04-19T02:23:38;102870.06;;;8.05;100.00
16194;BME280;8204;53.582;10.080;2023-04-19T02:26:07;102868.38;;;8.04;100.00
16194;BME280;8204;53.582;10.080;2023-04-19T02:28:36;102864.28;;;8.00;100.00
16194;BME280;8204;53.582;10.080;2023-04-19T02:31:08;102874.06;;;7.97;100.00
16194;BME280;8204;53.582;10.080;2023-04-19T02:33:36;102862.94;;;7.94;100.00
16194;BME280;8204;53.582;10.080;2023-04-19T02:36:06;102864.03;;;7.90;100.00
16194;BME280;8204;53.582;10.080;2023-04-19T02:38:35;102868.69;;;7.85;100.00
16194;BME280;8204;53.582;10.080;2023-04-19T02:41:04;102861.06;;;7.82;100.00
16194;BME280;8204;53.582;10.080;2023-04-19T02:43:33;102852.47;;;7.80;100.00
16194;BME280;8204;53.582;10.080;2023-04-19T02:46:02;102855.09;;;7.80;100.00
16194;BME280;8204;53.582;10.080;2023-04-19T02:48:35;102851.00;;;7.76;100.00
16194;BME280;8204;53.582;10.080;2023-04-19T02:51:04;102846.75;;;7.73;100.00
16194;BME280;8204;53.582;10.080;2023-04-19T02:53:33;102844.34;;;7.70;100.00
16194;BME280;8204;53.582;10.080;2023-04-19T02:56:02;102837.34;;;7.71;100.00
16194;BME280;8204;53.582;10.080;2023-04-19T02:58:31;102839.38;;;7.66;100.00
16194;BME280;8204;53.582;10.080;2023-04-19T03:00:59;102831.81;;;7.61;100.00
16194;BME280;8204;53.582;10.080;2023-04-19T03:03:28;102829.47;;;7.57;100.00
16194;BME280;8204;53.582;10.080;2023-04-19T03:06:00;102833.03;;;7.56;100.00
16194;BME280;8204;53.582;10.080;2023-04-19T03:08:29;102824.44;;;7.54;100.00
16194;BME280;8204;53.582;10.080;2023-04-19T03:10:58;102821.09;;;7.52;100.00
16194;BME280;8204;53.582;10.080;2023-04-19T03:13:27;102815.03;;;7.51;100.00
16194;BME280;8204;53.582;10.080;2023-04-19T03:15:55;102812.59;;;7.48;100.00
16194;BME280;8204;53.582;10.080;2023-04-19T03:18:24;102801.25;;;7.49;100.00
16194;BME280;8204;53.582;10.080;2023-04-19T03:20:53;102802.06;;;7.50;100.00
16194;BME280;8204;53.582;10.080;2023-04-19T03:23:24;102805.63;;;7.49;100.00
16194;BME280;8204;53.582;10.080;2023-04-19T03:25:53;102796.94;;;7.48;100.00
16194;BME280;8204;53.582;10.080;2023-04-19T03:28:22;102792.00;;;7.44;100.00
16194;BME280;8204;53.582;10.080;2023-04-19T03:30:51;102795.56;;;7.43;100.00
16194;BME280;8204;53.582;10.080;2023-04-19T03:33:20;102790.34;;;7.43;100.00
16194;BME280;8204;53.582;10.080;2023-04-19T03:35:49;102791.16;;;7.43;100.00
16194;BME280;8204;53.582;10.080;2023-04-19T03:38:18;102792.00;;;7.44;100.00
16194;BME280;8204;53.582;10.080;2023-04-19T03:40:49;102795.56;;;7.43;100.00
16194;BME280;8204;53.582;10.080;2023-04-19T03:43:18;102781.75;;;7.41;100.00
16194;BME280;8204;53.582;10.080;2023-04-19T03:45:47;102793.09;;;7.40;100.00
16194;BME280;8204;53.582;10.080;2023-04-19T03:48:15;102791.31;;;7.40;100.00
16194;BME280;8204;53.582;10.080;2023-04-19T03:50:44;102787.06;;;7.39;100.00
16194;BME280;8204;53.582;10.080;2023-04-19T03:53:13;102790.59;;;7.38;100.00
16194;BME280;8204;53.582;10.080;2023-04-19T03:55:43;102792.00;;;7.44;100.00
16194;BME280;8204;53.582;10.080;2023-04-19T03:58:15;102792.00;;;7.44;100.00
16194;BME280;8204;53.582;10.080;2023-04-19T04:00:44;102788.56;;;7.43;100.00
16194;BME280;8204;53.582;10.080;2023-04-19T04:03:13;102791.16;;;7.43;100.00
16194;BME280;8204;53.582;10.080;2023-04-19T04:05:42;102789.84;;;7.36;100.00
16194;BME280;8204;53.582;10.080;2023-04-19T04:08:10;102783.59;;;7.39;100.00
16194;BME280;8204;53.582;10.080;2023-04-19T04:10:39;102780.22;;;7.37;100.00
16194;BME280;8204;53.582;10.080;2023-04-19T04:13:08;102776.69;;;7.38;100.00
16194;BME280;8204;53.582;10.080;2023-04-19T04:15:39;102784.78;;;7.33;100.00
16194;BME280;8204;53.582;10.080;2023-04-19T04:18:08;102781.25;;;7.34;100.00
16194;BME280;8204;53.582;10.080;2023-04-19T04:20:37;102778.66;;;7.34;100.00
16194;BME280;8204;53.582;10.080;2023-04-19T04:23:06;102772.88;;;7.29;100.00
16194;BME280;8204;53.582;10.080;2023-04-19T04:25:36;102775.56;;;7.28;100.00
16194;BME280;8204;53.582;10.080;2023-04-19T04:28:05;102773.97;;;7.25;100.00
16194;BME280;8204;53.582;10.080;2023-04-19T04:30:34;102771.38;;;7.25;100.00
16194;BME280;8204;53.582;10.080;2023-04-19T04:33:05;102766.31;;;7.22;100.00
16194;BME280;8204;53.582;10.080;2023-04-19T04:35:37;102772.19;;;7.26;100.00
16194;BME280;8204;53.582;10.080;2023-04-19T04:38:06;102771.28;;;7.27;100.00
16194;BME280;8204;53.582;10.080;2023-04-19T04:40:36;102782.47;;;7.29;100.00
16194;BME280;8204;53.582;10.080;2023-04-19T04:43:05;102771.84;;;7.32;100.00
16194;BME280;8204;53.582;10.080;2023-04-19T04:45:34;102772.41;;;7.37;100.00
16194;BME280;8204;53.582;10.080;2023-04-19T04:48:05;102776.53;;;7.41;100.00
16194;BME280;8204;53.582;10.080;2023-04-19T04:50:34;102775.34;;;7.46;100.00
16194;BME280;8204;53.582;10.080;2023-04-19T04:53:03;102771.63;;;7.50;100.00
16194;BME280;8204;53.582;10.080;2023-04-19T04:55:33;102774.13;;;7.52;100.00
16194;BME280;8204;53.582;10.080;2023-04-19T04:58:02;102783.09;;;7.48;100.00
16194;BME280;8204;53.582;10.080;2023-04-19T05:00:31;102774.78;;;7.55;100.00
16194;BME280;8204;53.582;10.080;2023-04-19T05:03:00;102789.44;;;7.58;100.00
16194;BME280;8204;53.582;10.080;2023-04-19T05:05:32;102785.88;;;7.59;100.00
16194;BME280;8204;53.582;10.080;2023-04-19T05:08:01;102782.19;;;7.63;100.00
16194;BME280;8204;53.582;10.080;2023-04-19T05:10:30;102782.75;;;7.68;100.00
16194;BME280;8204;53.582;10.080;2023-04-19T05:12:59;102788.78;;;7.68;100.00
16194;BME280;8204;53.582;10.080;2023-04-19T05:15:28;102784.50;;;7.67;100.00
16194;BME280;8204;53.582;10.080;2023-04-19T05:17:57;102780.88;;;7.70;100.00
16194;BME280;8204;53.582;10.080;2023-04-19T05:20:28;102786.84;;;7.72;100.00
16194;BME280;8204;53.582;10.080;2023-04-19T05:23:01;102788.38;;;7.76;100.00
16194;BME280;8204;53.582;10.080;2023-04-19T05:25:30;102788.16;;;7.79;100.00
16194;BME280;8204;53.582;10.080;2023-04-19T05:27:58;102802.91;;;7.80;100.00
16194;BME280;8204;53.582;10.080;2023-04-19T05:30:28;102800.56;;;7.89;100.00
16194;BME280;8204;53.582;10.080;2023-04-19T05:32:57;102794.44;;;7.90;100.00
16194;BME280;8204;53.582;10.080;2023-04-19T05:35:26;102791.44;;;7.96;100.00
16194;BME280;8204;53.582;10.080;2023-04-19T05:37:55;102785.19;;;7.98;100.00
16194;BME280;8204;53.582;10.080;2023-04-19T05:40:26;102780.38;;;8.06;100.00
16194;BME280;8204;53.582;10.080;2023-04-19T05:42:55;102785.59;;;8.06;100.00
16194;BME280;8204;53.582;10.080;2023-04-19T05:45:24;102786.13;;;8.11;100.00
16194;BME280;8204;53.582;10.080;2023-04-19T05:47:53;102782.44;;;8.15;100.00
16194;BME280;8204;53.582;10.080;2023-04-19T05:50:22;102787.47;;;8.18;100.00
16194;BME280;8204;53.582;10.080;2023-04-19T05:52:51;102792.53;;;8.21;100.00
16194;BME280;8204;53.582;10.080;2023-04-19T05:55:20;102784.69;;;8.21;100.00
16194;BME280;8204;53.582;10.080;2023-04-19T05:57:51;102782.63;;;8.26;100.00
16194;BME280;8204;53.582;10.080;2023-04-19T06:00:20;102779.63;;;8.32;100.00
16194;BME280;8204;53.582;10.080;2023-04-19T06:02:49;102783.63;;;8.38;100.00
16194;BME280;8204;53.582;10.080;2023-04-19T06:05:18;102784.28;;;8.41;100.00
16194;BME280;8204;53.582;10.080;2023-04-19T06:07:47;102783.28;;;8.44;100.00
16194;BME280;8204;53.582;10.080;2023-04-19T06:10:16;102782.69;;;8.53;100.00
16194;BME280;8204;53.582;10.080;2023-04-19T06:12:45;102780.72;;;8.56;100.00
16194;BME280;8204;53.582;10.080;2023-04-19T06:15:16;102786.59;;;8.60;100.00
16194;BME280;8204;53.582;10.080;2023-04-19T06:17:45;102783.50;;;8.67;100.00
16194;BME280;8204;53.582;10.080;2023-04-19T06:20:14;102787.38;;;8.74;100.00
16194;BME280;8204;53.582;10.080;2023-04-19T06:22:44;102784.94;;;8.85;100.00
16194;BME280;8204;53.582;10.080;2023-04-19T06:25:13;102779.31;;;8.91;100.00
16194;BME280;8204;53.582;10.080;2023-04-19T06:27:42;102777.06;;;8.99;100.00
16194;BME280;8204;53.582;10.080;2023-04-19T06:30:11;102784.28;;;9.08;100.00
16194;BME280;8204;53.582;10.080;2023-04-19T06:32:42;102784.28;;;9.08;100.00
16194;BME280;8204;53.582;10.080;2023-04-19T06:35:13;102784.63;;;9.16;100.00
16194;BME280;8204;53.582;10.080;2023-04-19T06:37:43;102790.22;;;9.24;100.00
16194;BME280;8204;53.582;10.080;2023-04-19T06:40:12;102783.81;;;9.28;100.00
16194;BME280;8204;53.582;10.080;2023-04-19T06:42:40;102796.72;;;9.31;100.00
16194;BME280;8204;53.582;10.080;2023-04-19T06:45:10;102789.22;;;9.39;100.00
16194;BME280;8204;53.582;10.080;2023-04-19T06:47:42;102792.53;;;9.41;100.00
16194;BME280;8204;53.582;10.080;2023-04-19T06:50:11;102784.09;;;9.49;100.00
16194;BME280;8204;53.582;10.080;2023-04-19T06:52:40;102789.97;;;9.53;100.00
16194;BME280;8204;53.582;10.080;2023-04-19T06:55:10;102778.84;;;9.62;100.00
16194;BME280;8204;53.582;10.080;2023-04-19T06:57:38;102788.94;;;9.68;100.00
16194;BME280;8204;53.582;10.080;2023-04-19T07:00:09;102784.22;;;9.73;100.00
16194;BME280;8204;53.582;10.080;2023-04-19T07:02:42;102789.97;;;9.78;100.00
16194;BME280;8204;53.582;10.080;2023-04-19T07:05:11;102781.59;;;9.85;100.00
16194;BME280;8204;53.582;10.080;2023-04-19T07:07:40;102770.69;;;9.91;100.00
16194;BME280;8204;53.582;10.080;2023-04-19T07:10:09;102787.72;;;9.98;100.00
16194;BME280;8204;53.582;10.080;2023-04-19T07:12:37;102774.94;;;10.06;100.00
16194;BME280;8204;53.582;10.080;2023-04-19T07:15:08;102780.38;;;10.16;100.00
16194;BME280;8204;53.582;10.080;2023-04-19T07:17:37;102779.44;;;10.17;100.00
16194;BME280;8204;53.582;10.080;2023-04-19T07:20:09;102781.31;;;10.27;100.00
16194;BME280;8204;53.582;10.080;2023-04-19T07:22:38;102776.13;;;10.38;100.00
16194;BME280;8204;53.582;10.080;2023-04-19T07:25:08;102778.25;;;10.45;100.00
16194;BME280;8204;53.582;10.080;2023-04-19T07:27:39;102772.66;;;10.50;100.00
16194;BME280;8204;53.582;10.080;2023-04-19T07:30:08;102772.84;;;10.59;100.00
16194;BME280;8204;53.582;10.080;2023-04-19T07:32:38;102776.81;;;10.65;100.00
16194;BME280;8204;53.582;10.080;2023-04-19T07:35:09;102770.41;;;10.69;100.00
16194;BME280;8204;53.582;10.080;2023-04-19T07:37:38;102770.19;;;10.72;100.00
16194;BME280;8204;53.582;10.080;2023-04-19T07:40:08;102765.22;;;10.80;100.00
16194;BME280;8204;53.582;10.080;2023-04-19T07:42:38;102773.09;;;10.80;100.00
16194;BME280;8204;53.582;10.080;2023-04-19T07:45:08;102771.38;;;10.91;100.00
16194;BME280;8204;53.582;10.080;2023-04-19T07:47:37;102772.47;;;10.99;100.00
16194;BME280;8204;53.582;10.080;2023-04-19T07:50:10;102768.06;;;11.00;100.00
16194;BME280;8204;53.582;10.080;2023-04-19T07:52:39;102772.03;;;11.05;100.00
16194;BME280;8204;53.582;10.080;2023-04-19T07:55:08;102772.75;;;11.07;100.00
16194;BME280;8204;53.582;10.080;2023-04-19T07:57:37;102771.56;;;11.11;100.00
16194;BME280;8204;53.582;10.080;2023-04-19T08:00:12;102762.66;;;11.25;100.00
16194;BME280;8204;53.582;10.080;2023-04-19T08:02:42;102768.09;;;11.34;100.00
16194;BME280;8204;53.582;10.080;2023-04-19T08:05:14;102761.66;;;11.38;100.00
16194;BME280;8204;53.582;10.080;2023-04-19T08:07:45;102761.00;;;11.47;100.00
16194;BME280;8204;53.582;10.080;2023-04-19T08:10:14;102765.81;;;11.53;100.00
16194;BME280;8204;53.582;10.080;2023-04-19T08:12:44;102770.94;;;11.55;100.00
16194;BME280;8204;53.582;10.080;2023-04-19T08:15:13;102765.09;;;11.62;100.00
16194;BME280;8204;53.582;10.080;2023-04-19T08:17:42;102768.31;;;11.65;100.00
16194;BME280;8204;53.582;10.080;2023-04-19T08:20:14;102766.16;;;11.70;100.00
16194;BME280;8204;53.582;10.080;2023-04-19T08:22:42;102767.50;;;11.76;100.00
16194;BME280;8204;53.582;10.080;2023-04-19T08:25:11;102762.03;;;11.79;100.00
16194;BME280;8204;53.582;10.080;2023-04-19T08:27:41;102758.00;;;11.86;100.00
16194;BME280;8204;53.582;10.080;2023-04-19T08:30:12;102766.56;;;11.88;98.10
16194;BME280;8204;53.582;10.080;2023-04-19T08:32:41;102762.75;;;11.92;98.97
16194;BME280;8204;53.582;10.080;2023-04-19T08:35:09;102758.13;;;11.95;98.59
16194;BME280;8204;53.582;10.080;2023-04-19T08:37:41;102752.84;;;11.95;98.70
16194;BME280;8204;53.582;10.080;2023-04-19T08:40:10;102751.53;;;12.01;98.24
16194;BME280;8204;53.582;10.080;2023-04-19T08:42:39;102746.66;;;12.07;98.70
16194;BME280;8204;53.582;10.080;2023-04-19T08:45:08;102738.16;;;12.15;97.20
16194;BME280;8204;53.582;10.080;2023-04-19T08:47:39;102729.91;;;12.19;96.89
16194;BME280;8204;53.582;10.080;2023-04-19T08:50:09;102725.97;;;12.25;95.16
16194;BME280;8204;53.582;10.080;2023-04-19T08:52:37;102730.75;;;12.31;93.13
16194;BME280;8204;53.582;10.080;2023-04-19T08:55:14;102723.44;;;12.34;93.27
16194;BME280;8204;53.582;10.080;2023-04-19T08:57:43;102728.56;;;12.36;90.82
16194;BME280;8204;53.582;10.080;2023-04-19T09:00:15;102725.59;;;12.40;87.22
16194;BME280;8204;53.582;10.080;2023-04-19T09:02:46;102725.22;;;12.44;89.77
16194;BME280;8204;53.582;10.080;2023-04-19T09:05:16;102717.53;;;12.52;88.30
16194;BME280;8204;53.582;10.080;2023-04-19T09:07:46;102717.44;;;12.54;85.25
16194;BME280;8204;53.582;10.080;2023-04-19T09:10:18;102720.88;;;12.54;85.39
16194;BME280;8204;53.582;10.080;2023-04-19T09:13:03;102720.16;;;12.63;86.78
16194;BME280;8204;53.582;10.080;2023-04-19T09:15:36;102718.72;;;12.70;88.25
16194;BME280;8204;53.582;10.080;2023-04-19T09:18:08;102716.53;;;12.75;83.52
16194;BME280;8204;53.582;10.080;2023-04-19T09:20:41;102705.41;;;12.72;78.29
16194;BME280;8204;53.582;10.080;2023-04-19T09:23:11;102714.13;;;12.72;75.52
16194;BME280;8204;53.582;10.080;2023-04-19T09:25:51;102700.75;;;12.75;72.00
16194;BME280;8204;53.582;10.080;2023-04-19T09:28:21;102706.00;;;12.75;73.39
16194;BME280;8204;53.582;10.080;2023-04-19T09:30:50;102703.25;;;12.77;73.87
16194;BME280;8204;53.582;10.080;2023-04-19T09:33:39;102699.03;;;12.85;74.39
16194;BME280;8204;53.582;10.080;2023-04-19T09:36:10;102696.06;;;12.90;72.88
16194;BME280;8204;53.582;10.080;2023-04-19T09:38:45;102696.78;;;12.92;70.24
16194;BME280;8204;53.582;10.080;2023-04-19T09:41:18;102684.19;;;12.95;70.34
16194;BME280;8204;53.582;10.080;2023-04-19T09:43:47;102669.44;;;13.04;72.48
16194;BME280;8204;53.582;10.080;2023-04-19T09:46:29;102678.34;;;13.12;70.04
16194;BME280;8204;53.582;10.080;2023-04-19T09:49:15;102667.81;;;13.12;68.53
16194;BME280;8204;53.582;10.080;2023-04-19T09:51:47;102664.69;;;13.18;67.52
16194;BME280;8204;53.582;10.080;2023-04-19T09:54:18;102667.78;;;13.23;67.13
16194;BME280;8204;53.582;10.080;2023-04-19T09:56:51;102662.25;;;13.26;65.66
16194;BME280;8204;53.582;10.080;2023-04-19T09:59:21;102669.75;;;13.30;64.71
16194;BME280;8204;53.582;10.080;2023-04-19T10:01:53;102659.59;;;13.26;64.23
16194;BME280;8204;53.582;10.080;2023-04-19T10:04:22;102659.81;;;13.34;61.96
16194;BME280;8204;53.582;10.080;2023-04-19T10:06:53;102652.19;;;13.40;62.61
16194;BME280;8204;53.582;10.080;2023-04-19T10:09:22;102642.97;;;13.46;61.22
16194;BME280;8204;53.582;10.080;2023-04-19T10:11:55;102642.28;;;13.53;64.96
16194;BME280;8204;53.582;10.080;2023-04-19T10:14:26;102643.56;;;13.59;61.33
16194;BME280;8204;53.582;10.080;2023-04-19T10:16:58;102631.38;;;13.58;58.27
16194;BME280;8204;53.582;10.080;2023-04-19T10:19:28;102650.09;;;13.55;58.36
16194;BME280;8204;53.582;10.080;2023-04-19T10:21:58;102636.06;;;13.54;59.22
16194;BME280;8204;53.582;10.080;2023-04-19T10:24:30;102641.78;;;13.59;60.79
16194;BME280;8204;53.582;10.080;2023-04-19T10:27:10;102633.78;;;13.70;61.15
16194;BME280;8204;53.582;10.080;2023-04-19T10:30:03;102634.06;;;13.77;60.63
16194;BME280;8204;53.582;10.080;2023-04-19T10:32:37;102623.72;;;13.84;62.08
16194;BME280;8204;53.582;10.080;2023-04-19T10:35:08;102630.69;;;13.95;60.43
16194;BME280;8204;53.582;10.080;2023-04-19T10:37:38;102625.16;;;13.98;59.57
16194;BME280;8204;53.582;10.080;2023-04-19T10:40:09;102614.63;;;14.07;59.26
16194;BME280;8204;53.582;10.080;2023-04-19T10:45:47;102609.53;;;14.15;57.53
16194;BME280;8204;53.582;10.080;2023-04-19T10:48:39;102600.81;;;14.24;56.17
16194;BME280;8204;53.582;10.080;2023-04-19T10:51:13;102612.47;;;14.31;55.01
16194;BME280;8204;53.582;10.080;2023-04-19T10:54:01;102608.47;;;14.46;55.46
16194;BME280;8204;53.582;10.080;2023-04-19T10:56:55;102611.38;;;14.53;54.41
16194;BME280;8204;53.582;10.080;2023-04-19T10:59:31;102587.22;;;14.57;53.97
16194;BME280;8204;53.582;10.080;2023-04-19T11:02:04;102598.03;;;14.54;52.73
16194;BME280;8204;53.582;10.080;2023-04-19T11:04:57;102590.25;;;14.62;53.48
16194;BME280;8204;53.582;10.080;2023-04-19T11:07:27;102581.38;;;14.72;53.21
16194;BME280;8204;53.582;10.080;2023-04-19T11:09:56;102587.03;;;14.77;53.75
16194;BME280;8204;53.582;10.080;2023-04-19T11:12:25;102584.69;;;14.93;53.81
16194;BME280;8204;53.582;10.080;2023-04-19T11:14:57;102580.19;;;15.03;52.98
16194;BME280;8204;53.582;10.080;2023-04-19T11:17:31;102581.84;;;15.14;53.80
16194;BME280;8204;53.582;10.080;2023-04-19T11:20:05;102571.69;;;15.19;52.56
16194;BME280;8204;53.582;10.080;2023-04-19T11:22:37;102576.28;;;15.26;51.86
16194;BME280;8204;53.582;10.080;2023-04-19T11:25:08;102560.00;;;15.31;51.58
16194;BME280;8204;53.582;10.080;2023-04-19T11:27:37;102561.38;;;15.34;50.56
16194;BME280;8204;53.582;10.080;2023-04-19T11:30:10;102560.34;;;15.45;52.40
16194;BME280;8204;53.582;10.080;2023-04-19T11:32:46;102572.16;;;15.50;52.00
16194;BME280;8204;53.582;10.080;2023-04-19T11:35:18;102562.66;;;15.57;50.48
16194;BME280;8204;53.582;10.080;2023-04-19T11:37:48;102572.94;;;15.60;50.65
16194;BME280;8204;53.582;10.080;2023-04-19T11:40:19;102548.00;;;15.63;50.40
16194;BME280;8204;53.582;10.080;2023-04-19T11:42:53;102541.59;;;15.65;50.93
16194;BME280;8204;53.582;10.080;2023-04-19T11:45:25;102544.19;;;15.75;50.19
16194;BME280;8204;53.582;10.080;2023-04-19T11:48:00;102546.50;;;15.87;51.46
16194;BME280;8204;53.582;10.080;2023-04-19T11:50:35;102541.44;;;15.94;50.16
16194;BME280;8204;53.582;10.080;2023-04-19T11:53:10;102545.00;;;16.02;49.62
16194;BME280;8204;53.582;10.080;2023-04-19T11:55:41;102553.25;;;16.16;50.23
16194;BME280;8204;53.582;10.080;2023-04-19T11:58:25;102531.91;;;16.18;48.49
16194;BME280;8204;53.582;10.080;2023-04-19T12:00:54;102534.66;;;16.26;49.22
16194;BME280;8204;53.582;10.080;2023-04-19T12:03:30;102525.59;;;16.28;48.46
16194;BME280;8204;53.582;10.080;2023-04-19T12:06:01;102520.03;;;16.31;47.47
16194;BME280;8204;53.582;10.080;2023-04-19T12:08:35;102527.50;;;16.36;47.55
16194;BME280;8204;53.582;10.080;2023-04-19T12:11:07;102524.91;;;16.44;46.72
16194;BME280;8204;53.582;10.080;2023-04-19T12:13:36;102523.47;;;16.49;46.18
16194;BME280;8204;53.582;10.080;2023-04-19T12:16:06;102529.66;;;16.58;47.14
16194;BME280;8204;53.582;10.080;2023-04-19T12:18:46;102521.50;;;16.77;48.18
16194;BME280;8204;53.582;10.080;2023-04-19T12:21:26;102530.72;;;16.90;46.67
16194;BME280;8204;53.582;10.080;2023-04-19T12:23:57;102515.00;;;16.88;45.92
16194;BME280;8204;53.582;10.080;2023-04-19T12:26:28;102528.66;;;17.09;46.05
16194;BME280;8204;53.582;10.080;2023-04-19T12:28:58;102521.41;;;17.11;45.21
16194;BME280;8204;53.582;10.080;2023-04-19T12:31:27;102525.03;;;17.10;46.04
16194;BME280;8204;53.582;10.080;2023-04-19T12:34:00;102522.44;;;17.18;46.54
16194;BME280;8204;53.582;10.080;2023-04-19T12:36:29;102513.28;;;17.13;45.24
16194;BME280;8204;53.582;10.080;2023-04-19T12:38:58;102512.56;;;17.28;45.39
16194;BME280;8204;53.582;10.080;2023-04-19T12:41:27;102513.94;;;17.32;45.31
16194;BME280;8204;53.582;10.080;2023-04-19T12:43:57;102507.34;;;17.44;47.11
16194;BME280;8204;53.582;10.080;2023-04-19T12:46:27;102506.25;;;17.62;47.27
16194;BME280;8204;53.582;10.080;2023-04-19T12:48:55;102503.50;;;17.80;47.56
16194;BME280;8204;53.582;10.080;2023-04-19T12:51:27;102500.84;;;17.88;47.99
16194;BME280;8204;53.582;10.080;2023-04-19T12:53:56;102488.44;;;18.04;48.04
16194;BME280;8204;53.582;10.080;2023-04-19T12:56:25;102497.06;;;18.14;47.18
16194;BME280;8204;53.582;10.080;2023-04-19T12:58:54;102499.91;;;18.21;47.54
16194;BME280;8204;53.582;10.080;2023-04-19T13:01:23;102500.09;;;18.35;47.89
16194;BME280;8204;53.582;10.080;2023-04-19T13:03:52;102493.28;;;18.56;46.87
16194;BME280;8204;53.582;10.080;2023-04-19T13:06:20;102487.47;;;18.61;46.49
16194;BME280;8204;53.582;10.080;2023-04-19T13:08:52;102481.50;;;18.67;46.70